sensor_id;sensor_type;location;lat;lon;timestamp;P1;durP1;ratioP1;P2;durP2;ratioP2
68256;SDS011;55069;51.568;4.656;2023-12-20T00:00:54;24.30;;;5.07;;
68256;SDS011;55069;51.568;4.656;2023-12-20T00:03:19;28.80;;;5.47;;
68256;SDS011;55069;51.568;4.656;2023-12-20T00:05:45;29.25;;;4.18;;
68256;SDS011;55069;51.568;4.656;2023-12-20T00:08:11;37.90;;;4.53;;
68256;SDS011;55069;51.568;4.656;2023-12-20T00:10:36;28.73;;;4.88;;
68256;SDS011;55069;51.568;4.656;2023-12-20T00:13:02;26.45;;;4.50;;
68256;SDS011;55069;51.568;4.656;2023-12-20T00:15:27;18.93;;;3.23;;
68256;SDS011;55069;51.568;4.656;2023-12-20T00:17:53;24.07;;;4.33;;
68256;SDS011;55069;51.568;4.656;2023-12-20T00:20:18;18.45;;;3.35;;
68256;SDS011;55069;51.568;4.656;2023-12-20T00:22:44;16.77;;;2.73;;
68256;SDS011;55069;51.568;4.656;2023-12-20T00:25:09;13.00;;;2.03;;
68256;SDS011;55069;51.568;4.656;2023-12-20T00:27:34;19.93;;;3.00;;
68256;SDS011;55069;51.568;4.656;2023-12-20T00:30:00;18.10;;;2.47;;
68256;SDS011;55069;51.568;4.656;2023-12-20T00:32:25;19.42;;;3.15;;
68256;SDS011;55069;51.568;4.656;2023-12-20T00:34:51;20.50;;;3.47;;
68256;SDS011;55069;51.568;4.656;2023-12-20T00:37:16;16.30;;;3.73;;
68256;SDS011;55069;51.568;4.656;2023-12-20T00:39:42;24.87;;;4.10;;
68256;SDS011;55069;51.568;4.656;2023-12-20T00:42:07;17.75;;;3.28;;
68256;SDS011;55069;51.568;4.656;2023-12-20T00:44:33;25.98;;;3.72;;
68256;SDS011;55069;51.568;4.656;2023-12-20T00:46:58;28.77;;;4.30;;
68256;SDS011;55069;51.568;4.656;2023-12-20T00:49:24;29.23;;;5.30;;
68256;SDS011;55069;51.568;4.656;2023-12-20T00:51:49;26.67;;;4.97;;
68256;SDS011;55069;51.568;4.656;2023-12-20T00:54:15;25.30;;;5.20;;
68256;SDS011;55069;51.568;4.656;2023-12-20T00:56:41;31.05;;;5.47;;
68256;SDS011;55069;51.568;4.656;2023-12-20T00:59:07;30.63;;;6.40;;
68256;SDS011;55069;51.568;4.656;2023-12-20T01:01:32;37.07;;;6.10;;
68256;SDS011;55069;51.568;4.656;2023-12-20T01:03:58;32.47;;;4.82;;
68256;SDS011;55069;51.568;4.656;2023-12-20T01:06:24;30.67;;;6.13;;
68256;SDS011;55069;51.568;4.656;2023-12-20T01:08:49;34.47;;;5.18;;
68256;SDS011;55069;51.568;4.656;2023-12-20T01:11:15;34.93;;;4.60;;
68256;SDS011;55069;51.568;4.656;2023-12-20T01:13:40;23.60;;;4.23;;
68256;SDS011;55069;51.568;4.656;2023-12-20T01:16:06;36.58;;;5.43;;
68256;SDS011;55069;51.568;4.656;2023-12-20T01:18:31;26.27;;;5.17;;
68256;SDS011;55069;51.568;4.656;2023-12-20T01:21:01;25.33;;;4.33;;
68256;SDS011;55069;51.568;4.656;2023-12-20T01:23:28;23.50;;;2.92;;
68256;SDS011;55069;51.568;4.656;2023-12-20T01:25:53;19.50;;;3.10;;
68256;SDS011;55069;51.568;4.656;2023-12-20T01:28:19;23.00;;;2.63;;
68256;SDS011;55069;51.568;4.656;2023-12-20T01:30:44;19.15;;;2.53;;
68256;SDS011;55069;51.568;4.656;2023-12-20T01:33:10;21.47;;;2.77;;
68256;SDS011;55069;51.568;4.656;2023-12-20T01:35:35;24.63;;;3.47;;
68256;SDS011;55069;51.568;4.656;2023-12-20T01:38:01;25.85;;;2.60;;
68256;SDS011;55069;51.568;4.656;2023-12-20T01:40:26;17.87;;;2.90;;
68256;SDS011;55069;51.568;4.656;2023-12-20T01:43:01;22.90;;;2.87;;
68256;SDS011;55069;51.568;4.656;2023-12-20T01:45:30;28.67;;;2.80;;
68256;SDS011;55069;51.568;4.656;2023-12-20T01:47:57;27.97;;;3.03;;
68256;SDS011;55069;51.568;4.656;2023-12-20T01:50:23;16.83;;;2.85;;
68256;SDS011;55069;51.568;4.656;2023-12-20T01:52:49;17.93;;;2.60;;
68256;SDS011;55069;51.568;4.656;2023-12-20T01:55:17;17.63;;;2.85;;
68256;SDS011;55069;51.568;4.656;2023-12-20T01:57:44;18.67;;;3.83;;
68256;SDS011;55069;51.568;4.656;2023-12-20T02:00:11;21.00;;;3.28;;
68256;SDS011;55069;51.568;4.656;2023-12-20T02:02:38;28.50;;;3.30;;
68256;SDS011;55069;51.568;4.656;2023-12-20T02:05:05;24.13;;;3.00;;
68256;SDS011;55069;51.568;4.656;2023-12-20T02:07:31;19.27;;;3.60;;
68256;SDS011;55069;51.568;4.656;2023-12-20T02:09:57;23.03;;;3.17;;
68256;SDS011;55069;51.568;4.656;2023-12-20T02:12:22;33.65;;;4.43;;
68256;SDS011;55069;51.568;4.656;2023-12-20T02:14:48;27.13;;;4.10;;
68256;SDS011;55069;51.568;4.656;2023-12-20T02:17:15;22.33;;;4.05;;
68256;SDS011;55069;51.568;4.656;2023-12-20T02:19:41;31.90;;;3.87;;
68256;SDS011;55069;51.568;4.656;2023-12-20T02:22:09;22.13;;;3.45;;
68256;SDS011;55069;51.568;4.656;2023-12-20T02:24:36;21.48;;;3.05;;
68256;SDS011;55069;51.568;4.656;2023-12-20T02:27:01;24.10;;;2.40;;
68256;SDS011;55069;51.568;4.656;2023-12-20T02:29:28;18.35;;;3.10;;
68256;SDS011;55069;51.568;4.656;2023-12-20T02:31:53;26.03;;;3.43;;
68256;SDS011;55069;51.568;4.656;2023-12-20T02:34:19;21.37;;;3.57;;
68256;SDS011;55069;51.568;4.656;2023-12-20T02:36:44;20.67;;;3.33;;
68256;SDS011;55069;51.568;4.656;2023-12-20T02:39:10;24.97;;;3.27;;
68256;SDS011;55069;51.568;4.656;2023-12-20T02:41:35;20.60;;;2.90;;
68256;SDS011;55069;51.568;4.656;2023-12-20T02:44:01;32.87;;;3.20;;
68256;SDS011;55069;51.568;4.656;2023-12-20T02:46:27;24.02;;;3.05;;
68256;SDS011;55069;51.568;4.656;2023-12-20T02:48:52;28.63;;;4.10;;
68256;SDS011;55069;51.568;4.656;2023-12-20T02:51:18;34.40;;;4.13;;
68256;SDS011;55069;51.568;4.656;2023-12-20T02:53:43;41.40;;;6.03;;
68256;SDS011;55069;51.568;4.656;2023-12-20T02:56:09;27.43;;;3.93;;
68256;SDS011;55069;51.568;4.656;2023-12-20T02:58:34;33.13;;;4.27;;
68256;SDS011;55069;51.568;4.656;2023-12-20T03:01:00;19.88;;;3.17;;
68256;SDS011;55069;51.568;4.656;2023-12-20T03:03:25;20.00;;;3.80;;
68256;SDS011;55069;51.568;4.656;2023-12-20T03:05:51;23.03;;;3.30;;
68256;SDS011;55069;51.568;4.656;2023-12-20T03:08:16;21.65;;;3.05;;
68256;SDS011;55069;51.568;4.656;2023-12-20T03:10:42;22.70;;;2.77;;
68256;SDS011;55069;51.568;4.656;2023-12-20T03:13:07;24.07;;;3.20;;
68256;SDS011;55069;51.568;4.656;2023-12-20T03:15:33;30.38;;;4.95;;
68256;SDS011;55069;51.568;4.656;2023-12-20T03:17:58;23.83;;;3.78;;
68256;SDS011;55069;51.568;4.656;2023-12-20T03:20:24;32.00;;;5.13;;
68256;SDS011;55069;51.568;4.656;2023-12-20T03:22:51;22.75;;;3.83;;
68256;SDS011;55069;51.568;4.656;2023-12-20T03:25:16;26.17;;;4.77;;
68256;SDS011;55069;51.568;4.656;2023-12-20T03:27:42;30.13;;;4.32;;
68256;SDS011;55069;51.568;4.656;2023-12-20T03:30:08;29.30;;;5.07;;
68256;SDS011;55069;51.568;4.656;2023-12-20T03:32:34;21.80;;;4.20;;
68256;SDS011;55069;51.568;4.656;2023-12-20T03:34:59;26.40;;;3.80;;
68256;SDS011;55069;51.568;4.656;2023-12-20T03:37:25;26.67;;;2.90;;
68256;SDS011;55069;51.568;4.656;2023-12-20T03:39:50;17.67;;;2.05;;
68256;SDS011;55069;51.568;4.656;2023-12-20T03:42:16;19.77;;;3.03;;
68256;SDS011;55069;51.568;4.656;2023-12-20T03:44:41;21.63;;;3.00;;
68256;SDS011;55069;51.568;4.656;2023-12-20T03:47:07;20.03;;;3.90;;
68256;SDS011;55069;51.568;4.656;2023-12-20T03:49:32;23.63;;;3.45;;
68256;SDS011;55069;51.568;4.656;2023-12-20T03:51:58;27.53;;;3.67;;
68256;SDS011;55069;51.568;4.656;2023-12-20T03:54:24;18.33;;;2.83;;
68256;SDS011;55069;51.568;4.656;2023-12-20T03:56:49;23.60;;;3.22;;
68256;SDS011;55069;51.568;4.656;2023-12-20T03:59:15;20.77;;;3.40;;
68256;SDS011;55069;51.568;4.656;2023-12-20T04:01:44;18.75;;;2.95;;
68256;SDS011;55069;51.568;4.656;2023-12-20T04:04:10;25.25;;;3.35;;
68256;SDS011;55069;51.568;4.656;2023-12-20T04:06:36;17.67;;;2.90;;
68256;SDS011;55069;51.568;4.656;2023-12-20T04:09:01;12.02;;;2.90;;
68256;SDS011;55069;51.568;4.656;2023-12-20T04:11:27;31.33;;;4.40;;
68256;SDS011;55069;51.568;4.656;2023-12-20T04:13:52;16.57;;;3.27;;
68256;SDS011;55069;51.568;4.656;2023-12-20T04:16:18;24.48;;;3.22;;
68256;SDS011;55069;51.568;4.656;2023-12-20T04:18:43;21.70;;;3.03;;
68256;SDS011;55069;51.568;4.656;2023-12-20T04:21:09;24.40;;;3.17;;
68256;SDS011;55069;51.568;4.656;2023-12-20T04:23:34;29.10;;;3.70;;
68256;SDS011;55069;51.568;4.656;2023-12-20T04:26:00;20.23;;;4.18;;
68256;SDS011;55069;51.568;4.656;2023-12-20T04:28:25;26.67;;;4.57;;
68256;SDS011;55069;51.568;4.656;2023-12-20T04:30:51;19.47;;;3.67;;
68256;SDS011;55069;51.568;4.656;2023-12-20T04:33:16;36.50;;;4.23;;
68256;SDS011;55069;51.568;4.656;2023-12-20T04:35:42;33.03;;;4.25;;
68256;SDS011;55069;51.568;4.656;2023-12-20T04:38:08;30.77;;;5.23;;
68256;SDS011;55069;51.568;4.656;2023-12-20T04:40:34;27.75;;;5.30;;
68256;SDS011;55069;51.568;4.656;2023-12-20T04:42:59;24.97;;;4.03;;
68256;SDS011;55069;51.568;4.656;2023-12-20T04:45:25;30.60;;;4.65;;
68256;SDS011;55069;51.568;4.656;2023-12-20T04:47:51;29.92;;;4.63;;
68256;SDS011;55069;51.568;4.656;2023-12-20T04:50:16;24.10;;;4.65;;
68256;SDS011;55069;51.568;4.656;2023-12-20T04:52:42;18.48;;;4.03;;
68256;SDS011;55069;51.568;4.656;2023-12-20T04:55:08;25.63;;;3.50;;
68256;SDS011;55069;51.568;4.656;2023-12-20T04:57:34;28.92;;;4.00;;
68256;SDS011;55069;51.568;4.656;2023-12-20T05:00:00;30.88;;;3.58;;
68256;SDS011;55069;51.568;4.656;2023-12-20T05:02:25;30.70;;;3.73;;
68256;SDS011;55069;51.568;4.656;2023-12-20T05:04:51;24.73;;;3.93;;
68256;SDS011;55069;51.568;4.656;2023-12-20T05:07:16;38.33;;;4.00;;
68256;SDS011;55069;51.568;4.656;2023-12-20T05:09:42;21.52;;;3.67;;
68256;SDS011;55069;51.568;4.656;2023-12-20T05:12:07;24.03;;;3.40;;
68256;SDS011;55069;51.568;4.656;2023-12-20T05:14:33;24.67;;;3.03;;
68256;SDS011;55069;51.568;4.656;2023-12-20T05:16:59;21.17;;;3.55;;
68256;SDS011;55069;51.568;4.656;2023-12-20T05:19:24;23.73;;;3.40;;
68256;SDS011;55069;51.568;4.656;2023-12-20T05:21:50;28.43;;;3.70;;
68256;SDS011;55069;51.568;4.656;2023-12-20T05:24:15;21.65;;;4.90;;
68256;SDS011;55069;51.568;4.656;2023-12-20T05:26:41;37.17;;;4.93;;
68256;SDS011;55069;51.568;4.656;2023-12-20T05:29:06;26.83;;;4.33;;
68256;SDS011;55069;51.568;4.656;2023-12-20T05:31:32;23.37;;;3.97;;
68256;SDS011;55069;51.568;4.656;2023-12-20T05:33:57;23.30;;;4.13;;
68256;SDS011;55069;51.568;4.656;2023-12-20T05:36:23;20.23;;;3.30;;
68256;SDS011;55069;51.568;4.656;2023-12-20T05:38:48;23.53;;;3.83;;
68256;SDS011;55069;51.568;4.656;2023-12-20T05:41:14;15.43;;;2.92;;
68256;SDS011;55069;51.568;4.656;2023-12-20T05:43:39;26.83;;;3.57;;
68256;SDS011;55069;51.568;4.656;2023-12-20T05:46:05;30.70;;;3.33;;
68256;SDS011;55069;51.568;4.656;2023-12-20T05:48:30;20.57;;;3.00;;
68256;SDS011;55069;51.568;4.656;2023-12-20T05:50:56;22.60;;;3.30;;
68256;SDS011;55069;51.568;4.656;2023-12-20T05:53:22;24.33;;;2.65;;
68256;SDS011;55069;51.568;4.656;2023-12-20T05:55:48;20.50;;;2.53;;
68256;SDS011;55069;51.568;4.656;2023-12-20T05:58:13;32.20;;;3.45;;
68256;SDS011;55069;51.568;4.656;2023-12-20T06:00:39;23.70;;;3.67;;
68256;SDS011;55069;51.568;4.656;2023-12-20T06:03:04;24.27;;;3.07;;
68256;SDS011;55069;51.568;4.656;2023-12-20T06:05:30;24.33;;;3.30;;
68256;SDS011;55069;51.568;4.656;2023-12-20T06:07:56;22.75;;;3.10;;
68256;SDS011;55069;51.568;4.656;2023-12-20T06:10:26;22.55;;;2.78;;
68256;SDS011;55069;51.568;4.656;2023-12-20T06:12:52;27.17;;;3.50;;
68256;SDS011;55069;51.568;4.656;2023-12-20T06:15:17;19.27;;;2.53;;
68256;SDS011;55069;51.568;4.656;2023-12-20T06:17:43;17.70;;;2.27;;
68256;SDS011;55069;51.568;4.656;2023-12-20T06:20:09;21.45;;;3.25;;
68256;SDS011;55069;51.568;4.656;2023-12-20T06:22:35;25.37;;;3.10;;
68256;SDS011;55069;51.568;4.656;2023-12-20T06:25:01;29.00;;;3.58;;
68256;SDS011;55069;51.568;4.656;2023-12-20T06:27:28;23.20;;;2.28;;
68256;SDS011;55069;51.568;4.656;2023-12-20T06:29:54;20.30;;;2.42;;
68256;SDS011;55069;51.568;4.656;2023-12-20T06:32:19;18.63;;;2.77;;
68256;SDS011;55069;51.568;4.656;2023-12-20T06:34:45;25.23;;;2.87;;
68256;SDS011;55069;51.568;4.656;2023-12-20T06:37:10;17.95;;;2.70;;
68256;SDS011;55069;51.568;4.656;2023-12-20T06:39:36;14.82;;;2.03;;
68256;SDS011;55069;51.568;4.656;2023-12-20T06:42:01;22.30;;;2.60;;
68256;SDS011;55069;51.568;4.656;2023-12-20T06:44:27;20.53;;;3.43;;
68256;SDS011;55069;51.568;4.656;2023-12-20T06:46:52;17.57;;;2.30;;
68256;SDS011;55069;51.568;4.656;2023-12-20T06:49:18;16.48;;;1.98;;
68256;SDS011;55069;51.568;4.656;2023-12-20T06:51:43;22.27;;;2.63;;
68256;SDS011;55069;51.568;4.656;2023-12-20T06:54:09;17.80;;;2.35;;
68256;SDS011;55069;51.568;4.656;2023-12-20T06:56:34;14.90;;;2.20;;
68256;SDS011;55069;51.568;4.656;2023-12-20T06:59:00;20.77;;;1.93;;
68256;SDS011;55069;51.568;4.656;2023-12-20T07:01:25;14.90;;;2.03;;
68256;SDS011;55069;51.568;4.656;2023-12-20T07:03:51;20.85;;;2.20;;
68256;SDS011;55069;51.568;4.656;2023-12-20T07:06:16;19.73;;;2.60;;
68256;SDS011;55069;51.568;4.656;2023-12-20T07:08:42;27.13;;;2.20;;
68256;SDS011;55069;51.568;4.656;2023-12-20T07:11:08;22.95;;;2.85;;
68256;SDS011;55069;51.568;4.656;2023-12-20T07:13:33;20.97;;;2.10;;
68256;SDS011;55069;51.568;4.656;2023-12-20T07:15:59;21.70;;;2.77;;
68256;SDS011;55069;51.568;4.656;2023-12-20T07:18:24;23.13;;;2.80;;
68256;SDS011;55069;51.568;4.656;2023-12-20T07:20:50;20.48;;;2.60;;
68256;SDS011;55069;51.568;4.656;2023-12-20T07:23:15;27.73;;;2.83;;
68256;SDS011;55069;51.568;4.656;2023-12-20T07:25:41;21.40;;;2.50;;
68256;SDS011;55069;51.568;4.656;2023-12-20T07:28:06;21.17;;;2.33;;
68256;SDS011;55069;51.568;4.656;2023-12-20T07:30:32;20.67;;;2.33;;
68256;SDS011;55069;51.568;4.656;2023-12-20T07:32:57;21.90;;;2.00;;
68256;SDS011;55069;51.568;4.656;2023-12-20T07:35:23;22.80;;;2.47;;
68256;SDS011;55069;51.568;4.656;2023-12-20T07:37:48;22.38;;;2.17;;
68256;SDS011;55069;51.568;4.656;2023-12-20T07:40:14;15.83;;;2.13;;
68256;SDS011;55069;51.568;4.656;2023-12-20T07:42:42;17.92;;;2.53;;
68256;SDS011;55069;51.568;4.656;2023-12-20T07:45:07;14.67;;;1.93;;
68256;SDS011;55069;51.568;4.656;2023-12-20T07:47:34;20.63;;;2.15;;
68256;SDS011;55069;51.568;4.656;2023-12-20T07:49:59;19.27;;;2.43;;
68256;SDS011;55069;51.568;4.656;2023-12-20T07:52:25;23.15;;;2.25;;
68256;SDS011;55069;51.568;4.656;2023-12-20T07:54:51;20.93;;;2.80;;
68256;SDS011;55069;51.568;4.656;2023-12-20T07:57:16;19.92;;;2.90;;
68256;SDS011;55069;51.568;4.656;2023-12-20T07:59:42;21.37;;;2.40;;
68256;SDS011;55069;51.568;4.656;2023-12-20T08:02:09;18.90;;;1.80;;
68256;SDS011;55069;51.568;4.656;2023-12-20T08:04:34;25.00;;;3.03;;
68256;SDS011;55069;51.568;4.656;2023-12-20T08:07:00;43.77;;;5.70;;
68256;SDS011;55069;51.568;4.656;2023-12-20T08:09:26;20.48;;;2.67;;
68256;SDS011;55069;51.568;4.656;2023-12-20T08:11:51;31.23;;;3.17;;
68256;SDS011;55069;51.568;4.656;2023-12-20T08:14:17;27.83;;;3.30;;
68256;SDS011;55069;51.568;4.656;2023-12-20T08:16:42;18.23;;;2.40;;
68256;SDS011;55069;51.568;4.656;2023-12-20T08:19:08;21.23;;;2.67;;
68256;SDS011;55069;51.568;4.656;2023-12-20T08:21:33;18.37;;;2.40;;
68256;SDS011;55069;51.568;4.656;2023-12-20T08:23:59;25.05;;;3.13;;
68256;SDS011;55069;51.568;4.656;2023-12-20T08:26:25;16.87;;;2.20;;
68256;SDS011;55069;51.568;4.656;2023-12-20T08:28:51;11.73;;;2.35;;
68256;SDS011;55069;51.568;4.656;2023-12-20T08:31:17;25.63;;;2.57;;
68256;SDS011;55069;51.568;4.656;2023-12-20T08:33:44;22.75;;;2.55;;
68256;SDS011;55069;51.568;4.656;2023-12-20T08:36:10;26.98;;;3.45;;
68256;SDS011;55069;51.568;4.656;2023-12-20T08:38:36;24.30;;;3.03;;
68256;SDS011;55069;51.568;4.656;2023-12-20T08:41:02;18.70;;;2.50;;
68256;SDS011;55069;51.568;4.656;2023-12-20T08:43:30;24.73;;;4.07;;
68256;SDS011;55069;51.568;4.656;2023-12-20T08:46:08;20.58;;;2.67;;
68256;SDS011;55069;51.568;4.656;2023-12-20T08:48:34;28.83;;;3.55;;
68256;SDS011;55069;51.568;4.656;2023-12-20T08:51:00;31.95;;;3.22;;
68256;SDS011;55069;51.568;4.656;2023-12-20T08:53:26;26.77;;;2.60;;
68256;SDS011;55069;51.568;4.656;2023-12-20T08:55:52;27.70;;;2.70;;
68256;SDS011;55069;51.568;4.656;2023-12-20T08:58:17;28.38;;;3.17;;
68256;SDS011;55069;51.568;4.656;2023-12-20T09:00:43;22.90;;;2.97;;
68256;SDS011;55069;51.568;4.656;2023-12-20T09:03:08;29.38;;;3.42;;
68256;SDS011;55069;51.568;4.656;2023-12-20T09:05:34;15.70;;;2.47;;
68256;SDS011;55069;51.568;4.656;2023-12-20T09:08:00;24.57;;;3.30;;
68256;SDS011;55069;51.568;4.656;2023-12-20T09:10:25;24.38;;;2.80;;
68256;SDS011;55069;51.568;4.656;2023-12-20T09:12:51;25.13;;;2.37;;
68256;SDS011;55069;51.568;4.656;2023-12-20T09:15:22;19.88;;;2.05;;
68256;SDS011;55069;51.568;4.656;2023-12-20T09:17:50;22.40;;;2.53;;
68256;SDS011;55069;51.568;4.656;2023-12-20T09:20:16;26.15;;;2.50;;
68256;SDS011;55069;51.568;4.656;2023-12-20T09:22:41;22.73;;;2.80;;
68256;SDS011;55069;51.568;4.656;2023-12-20T09:25:07;25.83;;;2.50;;
68256;SDS011;55069;51.568;4.656;2023-12-20T09:27:33;19.83;;;2.70;;
68256;SDS011;55069;51.568;4.656;2023-12-20T09:29:58;17.30;;;2.93;;
68256;SDS011;55069;51.568;4.656;2023-12-20T09:32:24;22.35;;;2.90;;
68256;SDS011;55069;51.568;4.656;2023-12-20T09:34:49;20.33;;;2.93;;
68256;SDS011;55069;51.568;4.656;2023-12-20T09:37:15;17.80;;;2.53;;
68256;SDS011;55069;51.568;4.656;2023-12-20T09:39:40;20.63;;;3.60;;
68256;SDS011;55069;51.568;4.656;2023-12-20T09:42:06;16.65;;;2.50;;
68256;SDS011;55069;51.568;4.656;2023-12-20T09:44:32;23.20;;;2.67;;
68256;SDS011;55069;51.568;4.656;2023-12-20T09:47:04;22.17;;;2.67;;
68256;SDS011;55069;51.568;4.656;2023-12-20T09:49:30;21.15;;;2.30;;
68256;SDS011;55069;51.568;4.656;2023-12-20T09:51:57;20.13;;;2.40;;
68256;SDS011;55069;51.568;4.656;2023-12-20T09:54:25;18.05;;;2.70;;
68256;SDS011;55069;51.568;4.656;2023-12-20T09:56:53;26.00;;;2.80;;
68256;SDS011;55069;51.568;4.656;2023-12-20T09:59:19;19.65;;;2.20;;
68256;SDS011;55069;51.568;4.656;2023-12-20T10:01:44;25.43;;;3.10;;
68256;SDS011;55069;51.568;4.656;2023-12-20T10:04:10;22.97;;;2.27;;
68256;SDS011;55069;51.568;4.656;2023-12-20T10:06:41;29.95;;;3.63;;
68256;SDS011;55069;51.568;4.656;2023-12-20T10:09:08;21.17;;;2.30;;
68256;SDS011;55069;51.568;4.656;2023-12-20T10:11:38;30.92;;;3.22;;
68256;SDS011;55069;51.568;4.656;2023-12-20T10:14:04;18.80;;;2.70;;
68256;SDS011;55069;51.568;4.656;2023-12-20T10:16:31;18.83;;;3.35;;
68256;SDS011;55069;51.568;4.656;2023-12-20T10:18:58;18.48;;;3.15;;
68256;SDS011;55069;51.568;4.656;2023-12-20T10:21:24;29.92;;;2.65;;
68256;SDS011;55069;51.568;4.656;2023-12-20T10:23:51;19.48;;;2.15;;
68256;SDS011;55069;51.568;4.656;2023-12-20T10:26:21;20.53;;;3.40;;
68256;SDS011;55069;51.568;4.656;2023-12-20T10:28:53;22.02;;;3.60;;
68256;SDS011;55069;51.568;4.656;2023-12-20T10:31:30;25.75;;;2.67;;
68256;SDS011;55069;51.568;4.656;2023-12-20T10:33:59;16.40;;;2.30;;
68256;SDS011;55069;51.568;4.656;2023-12-20T10:36:26;22.27;;;2.67;;
68256;SDS011;55069;51.568;4.656;2023-12-20T10:38:53;20.83;;;2.57;;
68256;SDS011;55069;51.568;4.656;2023-12-20T10:41:24;22.02;;;2.80;;
68256;SDS011;55069;51.568;4.656;2023-12-20T10:44:00;16.15;;;2.45;;
68256;SDS011;55069;51.568;4.656;2023-12-20T10:46:28;30.00;;;2.55;;
68256;SDS011;55069;51.568;4.656;2023-12-20T10:48:55;26.95;;;2.95;;
68256;SDS011;55069;51.568;4.656;2023-12-20T10:51:21;28.37;;;2.93;;
68256;SDS011;55069;51.568;4.656;2023-12-20T10:53:48;27.25;;;2.45;;
68256;SDS011;55069;51.568;4.656;2023-12-20T10:56:17;19.27;;;2.30;;
68256;SDS011;55069;51.568;4.656;2023-12-20T10:58:47;22.67;;;2.95;;
68256;SDS011;55069;51.568;4.656;2023-12-20T11:01:14;19.73;;;2.47;;
68256;SDS011;55069;51.568;4.656;2023-12-20T11:03:43;15.23;;;2.30;;
68256;SDS011;55069;51.568;4.656;2023-12-20T11:08:52;28.08;;;3.40;;
68256;SDS011;55069;51.568;4.656;2023-12-20T11:11:29;22.33;;;3.20;;
68256;SDS011;55069;51.568;4.656;2023-12-20T11:14:02;26.42;;;3.30;;
68256;SDS011;55069;51.568;4.656;2023-12-20T11:16:33;15.40;;;2.40;;
68256;SDS011;55069;51.568;4.656;2023-12-20T11:19:04;18.85;;;2.30;;
68256;SDS011;55069;51.568;4.656;2023-12-20T11:21:30;22.27;;;2.92;;
68256;SDS011;55069;51.568;4.656;2023-12-20T11:23:56;22.30;;;3.83;;
68256;SDS011;55069;51.568;4.656;2023-12-20T11:26:28;26.30;;;3.03;;
68256;SDS011;55069;51.568;4.656;2023-12-20T11:28:54;21.85;;;2.85;;
68256;SDS011;55069;51.568;4.656;2023-12-20T11:32:02;14.15;;;2.15;;
68256;SDS011;55069;51.568;4.656;2023-12-20T11:34:48;21.17;;;2.80;;
68256;SDS011;55069;51.568;4.656;2023-12-20T11:37:14;21.08;;;3.03;;
68256;SDS011;55069;51.568;4.656;2023-12-20T11:39:40;18.93;;;2.57;;
68256;SDS011;55069;51.568;4.656;2023-12-20T11:42:05;16.53;;;2.10;;
68256;SDS011;55069;51.568;4.656;2023-12-20T11:44:31;19.73;;;2.88;;
68256;SDS011;55069;51.568;4.656;2023-12-20T11:46:58;17.50;;;2.35;;
68256;SDS011;55069;51.568;4.656;2023-12-20T11:49:24;22.97;;;2.73;;
68256;SDS011;55069;51.568;4.656;2023-12-20T11:51:50;28.63;;;2.67;;
68256;SDS011;55069;51.568;4.656;2023-12-20T11:54:16;13.82;;;1.92;;
68256;SDS011;55069;51.568;4.656;2023-12-20T11:56:41;28.43;;;2.50;;
68256;SDS011;55069;51.568;4.656;2023-12-20T11:59:08;20.73;;;3.25;;
68256;SDS011;55069;51.568;4.656;2023-12-20T12:01:34;15.50;;;2.20;;
68256;SDS011;55069;51.568;4.656;2023-12-20T12:04:03;27.30;;;2.17;;
68256;SDS011;55069;51.568;4.656;2023-12-20T12:06:31;23.85;;;2.85;;
68256;SDS011;55069;51.568;4.656;2023-12-20T12:08:57;10.47;;;1.27;;
68256;SDS011;55069;51.568;4.656;2023-12-20T12:11:23;30.60;;;2.67;;
68256;SDS011;55069;51.568;4.656;2023-12-20T12:13:48;12.23;;;2.00;;
68256;SDS011;55069;51.568;4.656;2023-12-20T12:16:17;17.27;;;3.00;;
68256;SDS011;55069;51.568;4.656;2023-12-20T12:18:54;28.40;;;2.27;;
68256;SDS011;55069;51.568;4.656;2023-12-20T12:21:23;16.38;;;2.63;;
68256;SDS011;55069;51.568;4.656;2023-12-20T12:23:49;23.67;;;3.75;;
68256;SDS011;55069;51.568;4.656;2023-12-20T12:26:15;19.33;;;2.63;;
68256;SDS011;55069;51.568;4.656;2023-12-20T12:28:41;19.40;;;2.35;;
68256;SDS011;55069;51.568;4.656;2023-12-20T12:31:07;22.00;;;2.03;;
68256;SDS011;55069;51.568;4.656;2023-12-20T12:33:33;17.00;;;2.33;;
68256;SDS011;55069;51.568;4.656;2023-12-20T12:36:02;20.35;;;2.40;;
68256;SDS011;55069;51.568;4.656;2023-12-20T12:38:30;26.63;;;2.85;;
68256;SDS011;55069;51.568;4.656;2023-12-20T12:40:55;18.47;;;2.23;;
68256;SDS011;55069;51.568;4.656;2023-12-20T12:43:21;17.73;;;2.28;;
68256;SDS011;55069;51.568;4.656;2023-12-20T12:45:48;13.07;;;2.77;;
68256;SDS011;55069;51.568;4.656;2023-12-20T12:48:14;16.38;;;2.83;;
68256;SDS011;55069;51.568;4.656;2023-12-20T12:50:39;22.73;;;3.42;;
68256;SDS011;55069;51.568;4.656;2023-12-20T12:53:05;21.47;;;3.37;;
68256;SDS011;55069;51.568;4.656;2023-12-20T12:55:31;25.00;;;3.53;;
68256;SDS011;55069;51.568;4.656;2023-12-20T12:57:56;23.23;;;2.87;;
68256;SDS011;55069;51.568;4.656;2023-12-20T13:00:22;18.57;;;3.23;;
68256;SDS011;55069;51.568;4.656;2023-12-20T13:02:47;26.77;;;2.75;;
68256;SDS011;55069;51.568;4.656;2023-12-20T13:05:13;25.50;;;3.20;;
68256;SDS011;55069;51.568;4.656;2023-12-20T13:07:38;13.13;;;1.60;;
68256;SDS011;55069;51.568;4.656;2023-12-20T13:10:05;14.55;;;2.78;;
68256;SDS011;55069;51.568;4.656;2023-12-20T13:12:31;23.20;;;3.67;;
68256;SDS011;55069;51.568;4.656;2023-12-20T13:14:57;23.57;;;3.73;;
68256;SDS011;55069;51.568;4.656;2023-12-20T13:17:22;22.20;;;3.10;;
68256;SDS011;55069;51.568;4.656;2023-12-20T13:19:48;22.17;;;2.87;;
68256;SDS011;55069;51.568;4.656;2023-12-20T13:22:15;21.88;;;2.95;;
68256;SDS011;55069;51.568;4.656;2023-12-20T13:24:41;18.05;;;2.13;;
68256;SDS011;55069;51.568;4.656;2023-12-20T13:27:08;16.83;;;2.42;;
68256;SDS011;55069;51.568;4.656;2023-12-20T13:29:34;19.87;;;2.30;;
68256;SDS011;55069;51.568;4.656;2023-12-20T13:31:59;17.97;;;2.77;;
68256;SDS011;55069;51.568;4.656;2023-12-20T13:34:25;19.75;;;2.47;;
68256;SDS011;55069;51.568;4.656;2023-12-20T13:36:50;19.90;;;2.53;;
68256;SDS011;55069;51.568;4.656;2023-12-20T13:39:16;14.23;;;1.60;;
68256;SDS011;55069;51.568;4.656;2023-12-20T13:41:42;17.53;;;2.17;;
68256;SDS011;55069;51.568;4.656;2023-12-20T13:44:07;20.67;;;2.45;;
68256;SDS011;55069;51.568;4.656;2023-12-20T13:46:33;18.83;;;2.60;;
68256;SDS011;55069;51.568;4.656;2023-12-20T13:48:58;17.63;;;2.78;;
68256;SDS011;55069;51.568;4.656;2023-12-20T13:51:24;18.40;;;2.73;;
68256;SDS011;55069;51.568;4.656;2023-12-20T13:53:50;10.48;;;1.67;;
68256;SDS011;55069;51.568;4.656;2023-12-20T13:56:15;19.03;;;2.67;;
68256;SDS011;55069;51.568;4.656;2023-12-20T13:58:41;19.03;;;1.90;;
68256;SDS011;55069;51.568;4.656;2023-12-20T14:01:07;10.83;;;2.30;;
68256;SDS011;55069;51.568;4.656;2023-12-20T14:03:34;17.00;;;2.08;;
68256;SDS011;55069;51.568;4.656;2023-12-20T14:05:59;20.57;;;3.00;;
68256;SDS011;55069;51.568;4.656;2023-12-20T14:08:26;12.65;;;1.70;;
68256;SDS011;55069;51.568;4.656;2023-12-20T14:10:52;14.80;;;2.30;;
68256;SDS011;55069;51.568;4.656;2023-12-20T14:13:18;15.93;;;1.90;;
68256;SDS011;55069;51.568;4.656;2023-12-20T14:15:44;18.55;;;2.58;;
68256;SDS011;55069;51.568;4.656;2023-12-20T14:18:09;18.87;;;1.80;;
68256;SDS011;55069;51.568;4.656;2023-12-20T14:20:37;12.68;;;1.83;;
68256;SDS011;55069;51.568;4.656;2023-12-20T14:23:04;18.65;;;2.17;;
68256;SDS011;55069;51.568;4.656;2023-12-20T14:25:30;18.50;;;2.20;;
68256;SDS011;55069;51.568;4.656;2023-12-20T14:27:56;17.38;;;3.15;;
68256;SDS011;55069;51.568;4.656;2023-12-20T14:30:22;23.03;;;2.17;;